sensor_id;sensor_type;location;lat;lon;timestamp;temperature;humidity
72202;SHT30;60105;54.956;73.412;2022-12-24T00:01:13;-2.40;76.17
72202;SHT30;60105;54.956;73.412;2022-12-24T00:03:39;-2.46;76.48
72202;SHT30;60105;54.956;73.412;2022-12-24T00:06:16;-2.49;76.76
72202;SHT30;60105;54.956;73.412;2022-12-24T00:08:43;-2.45;77.09
72202;SHT30;60105;54.956;73.412;2022-12-24T00:11:09;-2.31;76.64
72202;SHT30;60105;54.956;73.412;2022-12-24T00:13:35;-2.41;76.95
72202;SHT30;60105;54.956;73.412;2022-12-24T00:16:02;-2.24;76.63
72202;SHT30;60105;54.956;73.412;2022-12-24T00:18:28;-2.21;76.21
72202;SHT30;60105;54.956;73.412;2022-12-24T00:20:54;-2.27;76.33
72202;SHT30;60105;54.956;73.412;2022-12-24T00:23:20;-2.21;76.37
72202;SHT30;60105;54.956;73.412;2022-12-24T00:26:05;-2.22;76.45
72202;SHT30;60105;54.956;73.412;2022-12-24T00:28:41;-2.14;76.36
72202;SHT30;60105;54.956;73.412;2022-12-24T00:31:16;-2.15;76.41
72202;SHT30;60105;54.956;73.412;2022-12-24T00:33:45;-2.27;76.74
72202;SHT30;60105;54.956;73.412;2022-12-24T00:36:30;-2.32;76.93
72202;SHT30;60105;54.956;73.412;2022-12-24T00:38:56;-2.32;77.38
72202;SHT30;60105;54.956;73.412;2022-12-24T00:41:22;-2.24;76.93
72202;SHT30;60105;54.956;73.412;2022-12-24T00:43:58;-2.25;77.48
72202;SHT30;60105;54.956;73.412;2022-12-24T00:46:26;-2.10;76.93
72202;SHT30;60105;54.956;73.412;2022-12-24T00:49:04;-2.11;76.99
72202;SHT30;60105;54.956;73.412;2022-12-24T00:51:30;-2.11;76.97
72202;SHT30;60105;54.956;73.412;2022-12-24T00:54:07;-2.05;76.91
72202;SHT30;60105;54.956;73.412;2022-12-24T00:56:39;-2.07;76.83
72202;SHT30;60105;54.956;73.412;2022-12-24T00:59:07;-2.11;77.31
72202;SHT30;60105;54.956;73.412;2022-12-24T01:01:38;-2.17;77.22
72202;SHT30;60105;54.956;73.412;2022-12-24T01:04:05;-2.10;77.30
72202;SHT30;60105;54.956;73.412;2022-12-24T01:06:56;-1.97;77.02
72202;SHT30;60105;54.956;73.412;2022-12-24T01:09:22;-2.03;77.10
72202;SHT30;60105;54.956;73.412;2022-12-24T01:11:49;-2.05;77.13
72202;SHT30;60105;54.956;73.412;2022-12-24T01:14:21;-2.07;77.50
72202;SHT30;60105;54.956;73.412;2022-12-24T01:16:47;-2.07;77.48
72202;SHT30;60105;54.956;73.412;2022-12-24T01:19:18;-1.95;77.41
72202;SHT30;60105;54.956;73.412;2022-12-24T01:21:55;-1.84;76.95
72202;SHT30;60105;54.956;73.412;2022-12-24T01:24:27;-1.80;76.73
72202;SHT30;60105;54.956;73.412;2022-12-24T01:26:53;-1.86;76.77
72202;SHT30;60105;54.956;73.412;2022-12-24T01:29:24;-1.87;76.79
72202;SHT30;60105;54.956;73.412;2022-12-24T01:31:51;-1.97;77.09
72202;SHT30;60105;54.956;73.412;2022-12-24T01:34:35;-1.86;76.79
72202;SHT30;60105;54.956;73.412;2022-12-24T01:37:02;-1.90;77.08
72202;SHT30;60105;54.956;73.412;2022-12-24T01:39:30;-1.87;77.10
72202;SHT30;60105;54.956;73.412;2022-12-24T01:42:19;-1.87;76.94
72202;SHT30;60105;54.956;73.412;2022-12-24T01:48:02;-1.76;76.34
72202;SHT30;60105;54.956;73.412;2022-12-24T01:50:29;-1.74;76.55
72202;SHT30;60105;54.956;73.412;2022-12-24T01:53:07;-1.70;76.61
72202;SHT30;60105;54.956;73.412;2022-12-24T01:55:34;-1.62;76.21
72202;SHT30;60105;54.956;73.412;2022-12-24T01:58:02;-1.67;76.34
72202;SHT30;60105;54.956;73.412;2022-12-24T02:00:29;-1.64;76.21
72202;SHT30;60105;54.956;73.412;2022-12-24T02:02:58;-1.62;76.33
72202;SHT30;60105;54.956;73.412;2022-12-24T02:05:36;-1.70;76.51
72202;SHT30;60105;54.956;73.412;2022-12-24T02:08:04;-1.66;76.14
72202;SHT30;60105;54.956;73.412;2022-12-24T02:10:30;-1.66;76.35
72202;SHT30;60105;54.956;73.412;2022-12-24T02:13:02;-1.69;76.80
72202;SHT30;60105;54.956;73.412;2022-12-24T02:27:56;-1.56;76.59
72202;SHT30;60105;54.956;73.412;2022-12-24T02:30:37;-1.55;76.15
72202;SHT30;60105;54.956;73.412;2022-12-24T02:38:40;-1.63;76.77
72202;SHT30;60105;54.956;73.412;2022-12-24T02:41:15;-1.49;76.60
72202;SHT30;60105;54.956;73.412;2022-12-24T02:43:44;-1.55;76.46
72202;SHT30;60105;54.956;73.412;2022-12-24T02:46:20;-1.72;77.05
72202;SHT30;60105;54.956;73.412;2022-12-24T02:51:33;-1.62;77.06
72202;SHT30;60105;54.956;73.412;2022-12-24T02:54:00;-1.63;77.07
72202;SHT30;60105;54.956;73.412;2022-12-24T03:07:16;-1.63;77.15
72202;SHT30;60105;54.956;73.412;2022-12-24T03:10:01;-1.62;77.15
72202;SHT30;60105;54.956;73.412;2022-12-24T03:12:40;-1.60;77.23
72202;SHT30;60105;54.956;73.412;2022-12-24T03:15:10;-1.62;77.34
72202;SHT30;60105;54.956;73.412;2022-12-24T03:17:57;-1.66;77.68
72202;SHT30;60105;54.956;73.412;2022-12-24T03:23:22;-1.41;77.11
72202;SHT30;60105;54.956;73.412;2022-12-24T03:25:54;-1.42;76.65
72202;SHT30;60105;54.956;73.412;2022-12-24T03:28:24;-1.31;76.63
72202;SHT30;60105;54.956;73.412;2022-12-24T03:30:52;-1.21;76.42
72202;SHT30;60105;54.956;73.412;2022-12-24T03:33:18;-1.12;76.12
72202;SHT30;60105;54.956;73.412;2022-12-24T03:36:03;-1.22;76.29
72202;SHT30;60105;54.956;73.412;2022-12-24T03:38:30;-1.12;76.26
72202;SHT30;60105;54.956;73.412;2022-12-24T03:40:56;-1.09;75.84
72202;SHT30;60105;54.956;73.412;2022-12-24T03:43:23;-1.05;75.75
72202;SHT30;60105;54.956;73.412;2022-12-24T03:45:49;-1.01;75.81
72202;SHT30;60105;54.956;73.412;2022-12-24T03:48:15;-0.95;75.63
72202;SHT30;60105;54.956;73.412;2022-12-24T03:51:00;-0.90;75.60
72202;SHT30;60105;54.956;73.412;2022-12-24T03:53:31;-0.80;75.19
72202;SHT30;60105;54.956;73.412;2022-12-24T03:55:57;-0.73;74.82
72202;SHT30;60105;54.956;73.412;2022-12-24T03:58:24;-0.72;74.79
72202;SHT30;60105;54.956;73.412;2022-12-24T04:01:00;-0.73;74.93
72202;SHT30;60105;54.956;73.412;2022-12-24T04:03:26;-0.73;75.05
72202;SHT30;60105;54.956;73.412;2022-12-24T04:06:08;-0.70;75.01
72202;SHT30;60105;54.956;73.412;2022-12-24T04:08:37;-0.70;74.91
72202;SHT30;60105;54.956;73.412;2022-12-24T04:11:04;-0.62;75.01
72202;SHT30;60105;54.956;73.412;2022-12-24T04:13:30;-0.62;75.17
72202;SHT30;60105;54.956;73.412;2022-12-24T04:16:09;-0.67;75.24
72202;SHT30;60105;54.956;73.412;2022-12-24T04:21:50;-0.70;75.47
72202;SHT30;60105;54.956;73.412;2022-12-24T04:24:21;-0.72;75.21
72202;SHT30;60105;54.956;73.412;2022-12-24T04:26:47;-0.67;75.56
72202;SHT30;60105;54.956;73.412;2022-12-24T04:29:18;-0.66;75.36
72202;SHT30;60105;54.956;73.412;2022-12-24T04:31:45;-0.63;75.57
72202;SHT30;60105;54.956;73.412;2022-12-24T04:36:55;-0.46;74.97
72202;SHT30;60105;54.956;73.412;2022-12-24T04:39:40;-0.45;74.85
72202;SHT30;60105;54.956;73.412;2022-12-24T04:42:25;-0.39;74.76
72202;SHT30;60105;54.956;73.412;2022-12-24T04:44:51;-0.32;74.58
72202;SHT30;60105;54.956;73.412;2022-12-24T04:47:28;-0.42;74.89
72202;SHT30;60105;54.956;73.412;2022-12-24T04:49:54;-0.48;75.32
72202;SHT30;60105;54.956;73.412;2022-12-24T04:52:20;-0.35;75.09
72202;SHT30;60105;54.956;73.412;2022-12-24T04:54:46;-0.32;74.88
72202;SHT30;60105;54.956;73.412;2022-12-24T04:57:13;-0.39;74.89
72202;SHT30;60105;54.956;73.412;2022-12-24T05:02:34;-0.29;74.92
72202;SHT30;60105;54.956;73.412;2022-12-24T05:05:00;-0.30;74.79
72202;SHT30;60105;54.956;73.412;2022-12-24T05:07:29;-0.30;74.59
72202;SHT30;60105;54.956;73.412;2022-12-24T05:09:55;-0.43;75.65
72202;SHT30;60105;54.956;73.412;2022-12-24T05:12:21;-0.36;75.76
72202;SHT30;60105;54.956;73.412;2022-12-24T05:14:48;-0.42;75.75
72202;SHT30;60105;54.956;73.412;2022-12-24T05:17:14;-0.30;75.42
72202;SHT30;60105;54.956;73.412;2022-12-24T05:19:41;-0.12;74.91
72202;SHT30;60105;54.956;73.412;2022-12-24T05:25:10;-0.04;74.44
72202;SHT30;60105;54.956;73.412;2022-12-24T05:30:58;0.03;74.29
72202;SHT30;60105;54.956;73.412;2022-12-24T05:33:24;0.09;74.20
72202;SHT30;60105;54.956;73.412;2022-12-24T05:35:51;0.13;74.07
72202;SHT30;60105;54.956;73.412;2022-12-24T05:38:22;0.23;74.09
72202;SHT30;60105;54.956;73.412;2022-12-24T05:40:54;0.26;73.87
72202;SHT30;60105;54.956;73.412;2022-12-24T05:43:20;0.37;73.60
72202;SHT30;60105;54.956;73.412;2022-12-24T05:45:47;0.33;73.50
72202;SHT30;60105;54.956;73.412;2022-12-24T05:48:13;0.32;73.73
72202;SHT30;60105;54.956;73.412;2022-12-24T05:53:34;0.36;73.77
72202;SHT30;60105;54.956;73.412;2022-12-24T05:56:14;0.29;73.96
72202;SHT30;60105;54.956;73.412;2022-12-24T05:58:41;0.35;73.88
72202;SHT30;60105;54.956;73.412;2022-12-24T06:01:13;0.44;73.55
72202;SHT30;60105;54.956;73.412;2022-12-24T06:03:50;0.46;73.66
72202;SHT30;60105;54.956;73.412;2022-12-24T06:06:27;0.43;73.48
72202;SHT30;60105;54.956;73.412;2022-12-24T06:09:03;0.54;73.19
72202;SHT30;60105;54.956;73.412;2022-12-24T06:11:30;0.53;73.51
72202;SHT30;60105;54.956;73.412;2022-12-24T06:16:43;0.53;73.76
72202;SHT30;60105;54.956;73.412;2022-12-24T06:19:20;0.56;73.48
72202;SHT30;60105;54.956;73.412;2022-12-24T06:21:46;0.56;73.70
72202;SHT30;60105;54.956;73.412;2022-12-24T06:24:12;0.64;73.13
72202;SHT30;60105;54.956;73.412;2022-12-24T06:26:49;0.64;73.43
72202;SHT30;60105;54.956;73.412;2022-12-24T06:29:15;0.77;73.11
72202;SHT30;60105;54.956;73.412;2022-12-24T06:31:41;0.77;72.84
72202;SHT30;60105;54.956;73.412;2022-12-24T06:34:07;0.78;73.22
72202;SHT30;60105;54.956;73.412;2022-12-24T06:36:33;0.80;72.74
72202;SHT30;60105;54.956;73.412;2022-12-24T06:38:59;0.70;73.14
72202;SHT30;60105;54.956;73.412;2022-12-24T06:41:25;0.78;72.99
72202;SHT30;60105;54.956;73.412;2022-12-24T06:43:52;0.75;73.11
72202;SHT30;60105;54.956;73.412;2022-12-24T06:46:19;0.75;73.31
72202;SHT30;60105;54.956;73.412;2022-12-24T06:48:46;0.60;73.51
72202;SHT30;60105;54.956;73.412;2022-12-24T06:51:22;0.47;74.03
72202;SHT30;60105;54.956;73.412;2022-12-24T06:53:49;0.40;74.51
72202;SHT30;60105;54.956;73.412;2022-12-24T06:56:16;0.46;74.53
72202;SHT30;60105;54.956;73.412;2022-12-24T06:58:43;0.60;74.36
72202;SHT30;60105;54.956;73.412;2022-12-24T07:01:16;0.67;73.67
72202;SHT30;60105;54.956;73.412;2022-12-24T07:04:04;0.63;73.63
72202;SHT30;60105;54.956;73.412;2022-12-24T07:06:31;0.68;73.53
72202;SHT30;60105;54.956;73.412;2022-12-24T07:11:42;0.58;73.86
72202;SHT30;60105;54.956;73.412;2022-12-24T07:14:08;0.61;73.77
72202;SHT30;60105;54.956;73.412;2022-12-24T07:16:35;0.54;73.95
72202;SHT30;60105;54.956;73.412;2022-12-24T07:19:01;0.46;74.52
72202;SHT30;60105;54.956;73.412;2022-12-24T07:21:28;0.52;74.63
72202;SHT30;60105;54.956;73.412;2022-12-24T07:23:54;0.54;74.52
72202;SHT30;60105;54.956;73.412;2022-12-24T07:26:20;0.49;74.24
72202;SHT30;60105;54.956;73.412;2022-12-24T07:31:31;0.53;74.34
72202;SHT30;60105;54.956;73.412;2022-12-24T07:33:57;0.56;74.40
72202;SHT30;60105;54.956;73.412;2022-12-24T07:36:24;0.58;74.24
72202;SHT30;60105;54.956;73.412;2022-12-24T07:38:50;0.49;74.03
72202;SHT30;60105;54.956;73.412;2022-12-24T07:41:17;0.42;74.61
72202;SHT30;60105;54.956;73.412;2022-12-24T07:44:03;0.54;74.43
72202;SHT30;60105;54.956;73.412;2022-12-24T07:46:29;0.54;74.21
72202;SHT30;60105;54.956;73.412;2022-12-24T07:49:14;0.56;74.28
72202;SHT30;60105;54.956;73.412;2022-12-24T07:51:40;0.53;73.92
72202;SHT30;60105;54.956;73.412;2022-12-24T07:54:06;0.47;74.64
72202;SHT30;60105;54.956;73.412;2022-12-24T07:56:33;0.43;74.34
72202;SHT30;60105;54.956;73.412;2022-12-24T07:58:59;0.42;74.70
72202;SHT30;60105;54.956;73.412;2022-12-24T08:04:31;0.46;74.74
72202;SHT30;60105;54.956;73.412;2022-12-24T08:07:05;0.60;74.05
72202;SHT30;60105;54.956;73.412;2022-12-24T08:09:33;0.65;73.83
72202;SHT30;60105;54.956;73.412;2022-12-24T08:12:01;0.67;73.70
72202;SHT30;60105;54.956;73.412;2022-12-24T08:14:38;0.60;73.65
72202;SHT30;60105;54.956;73.412;2022-12-24T08:17:15;0.67;73.80
72202;SHT30;60105;54.956;73.412;2022-12-24T08:19:41;0.60;73.56
72202;SHT30;60105;54.956;73.412;2022-12-24T08:22:07;0.56;73.99
72202;SHT30;60105;54.956;73.412;2022-12-24T08:24:33;0.67;73.85
72202;SHT30;60105;54.956;73.412;2022-12-24T08:26:59;0.75;73.16
72202;SHT30;60105;54.956;73.412;2022-12-24T08:29:26;0.78;73.31
72202;SHT30;60105;54.956;73.412;2022-12-24T08:31:53;0.83;73.05
72202;SHT30;60105;54.956;73.412;2022-12-24T08:34:19;0.84;72.81
72202;SHT30;60105;54.956;73.412;2022-12-24T08:36:45;0.73;72.89
72202;SHT30;60105;54.956;73.412;2022-12-24T08:39:11;0.70;73.29
72202;SHT30;60105;54.956;73.412;2022-12-24T08:41:37;0.70;73.44
72202;SHT30;60105;54.956;73.412;2022-12-24T08:44:04;0.71;73.35
72202;SHT30;60105;54.956;73.412;2022-12-24T08:46:39;0.84;72.94
72202;SHT30;60105;54.956;73.412;2022-12-24T08:49:05;0.81;72.90
72202;SHT30;60105;54.956;73.412;2022-12-24T08:51:31;0.80;72.88
72202;SHT30;60105;54.956;73.412;2022-12-24T08:54:02;0.81;73.11
72202;SHT30;60105;54.956;73.412;2022-12-24T08:56:29;0.89;72.53
72202;SHT30;60105;54.956;73.412;2022-12-24T08:58:55;0.88;72.20
72202;SHT30;60105;54.956;73.412;2022-12-24T09:01:21;0.94;72.57
72202;SHT30;60105;54.956;73.412;2022-12-24T09:03:47;0.89;72.26
72202;SHT30;60105;54.956;73.412;2022-12-24T09:06:14;0.89;72.38
72202;SHT30;60105;54.956;73.412;2022-12-24T09:08:46;0.78;72.67
72202;SHT30;60105;54.956;73.412;2022-12-24T09:11:14;0.74;72.77
72202;SHT30;60105;54.956;73.412;2022-12-24T09:22:17;0.75;72.59
72202;SHT30;60105;54.956;73.412;2022-12-24T09:24:43;0.71;73.03
72202;SHT30;60105;54.956;73.412;2022-12-24T09:27:09;0.75;72.75
72202;SHT30;60105;54.956;73.412;2022-12-24T09:29:35;0.74;72.70
72202;SHT30;60105;54.956;73.412;2022-12-24T09:32:02;0.67;72.44
72202;SHT30;60105;54.956;73.412;2022-12-24T09:34:28;0.67;72.72
72202;SHT30;60105;54.956;73.412;2022-12-24T09:36:54;0.70;73.14
72202;SHT30;60105;54.956;73.412;2022-12-24T09:39:25;0.60;73.33
72202;SHT30;60105;54.956;73.412;2022-12-24T09:45:20;0.63;72.80
72202;SHT30;60105;54.956;73.412;2022-12-24T09:47:51;0.47;73.61
72202;SHT30;60105;54.956;73.412;2022-12-24T09:50:25;0.61;73.35
72202;SHT30;60105;54.956;73.412;2022-12-24T09:52:54;0.61;72.91
72202;SHT30;60105;54.956;73.412;2022-12-24T09:58:14;0.74;72.85
72202;SHT30;60105;54.956;73.412;2022-12-24T10:00:52;0.58;72.99
72202;SHT30;60105;54.956;73.412;2022-12-24T10:03:19;0.64;72.89
72202;SHT30;60105;54.956;73.412;2022-12-24T10:06:08;0.60;73.06
72202;SHT30;60105;54.956;73.412;2022-12-24T10:12:08;0.54;73.11
72202;SHT30;60105;54.956;73.412;2022-12-24T10:15:19;0.54;73.14
72202;SHT30;60105;54.956;73.412;2022-12-24T10:17:55;0.57;73.39
72202;SHT30;60105;54.956;73.412;2022-12-24T10:26:06;0.67;73.00
72202;SHT30;60105;54.956;73.412;2022-12-24T10:34:27;0.64;72.48
72202;SHT30;60105;54.956;73.412;2022-12-24T10:37:05;0.65;72.33
72202;SHT30;60105;54.956;73.412;2022-12-24T10:39:32;0.65;72.68
72202;SHT30;60105;54.956;73.412;2022-12-24T10:42:08;0.70;72.10
72202;SHT30;60105;54.956;73.412;2022-12-24T10:44:35;0.71;72.26
72202;SHT30;60105;54.956;73.412;2022-12-24T10:47:03;0.64;72.57
72202;SHT30;60105;54.956;73.412;2022-12-24T10:49:47;0.65;72.35
72202;SHT30;60105;54.956;73.412;2022-12-24T10:52:32;0.68;72.00
72202;SHT30;60105;54.956;73.412;2022-12-24T10:58:04;0.61;71.92
72202;SHT30;60105;54.956;73.412;2022-12-24T11:00:31;0.52;72.21
72202;SHT30;60105;54.956;73.412;2022-12-24T11:03:21;0.53;72.40
72202;SHT30;60105;54.956;73.412;2022-12-24T11:06:28;0.54;72.53
72202;SHT30;60105;54.956;73.412;2022-12-24T11:12:00;0.56;72.53
72202;SHT30;60105;54.956;73.412;2022-12-24T11:14:33;0.49;72.49
72202;SHT30;60105;54.956;73.412;2022-12-24T11:17:01;0.44;72.74
72202;SHT30;60105;54.956;73.412;2022-12-24T11:19:30;0.53;72.45
72202;SHT30;60105;54.956;73.412;2022-12-24T11:22:06;0.56;72.22
72202;SHT30;60105;54.956;73.412;2022-12-24T11:24:37;0.49;72.59
72202;SHT30;60105;54.956;73.412;2022-12-24T11:30:17;0.40;73.02
72202;SHT30;60105;54.956;73.412;2022-12-24T11:35:47;0.39;72.72
72202;SHT30;60105;54.956;73.412;2022-12-24T11:38:22;0.46;72.81
72202;SHT30;60105;54.956;73.412;2022-12-24T11:41:03;0.46;72.39
72202;SHT30;60105;54.956;73.412;2022-12-24T11:43:36;0.39;72.46
72202;SHT30;60105;54.956;73.412;2022-12-24T11:52:15;0.32;72.66
72202;SHT30;60105;54.956;73.412;2022-12-24T11:55:05;0.36;72.62
72202;SHT30;60105;54.956;73.412;2022-12-24T12:01:02;0.42;72.51
72202;SHT30;60105;54.956;73.412;2022-12-24T12:03:39;0.39;72.54
72202;SHT30;60105;54.956;73.412;2022-12-24T12:06:35;0.42;72.53
72202;SHT30;60105;54.956;73.412;2022-12-24T12:09:15;0.46;72.32
72202;SHT30;60105;54.956;73.412;2022-12-24T12:11:54;0.44;72.42
72202;SHT30;60105;54.956;73.412;2022-12-24T12:14:26;0.44;72.36
72202;SHT30;60105;54.956;73.412;2022-12-24T12:17:26;0.43;72.30
72202;SHT30;60105;54.956;73.412;2022-12-24T12:25:54;0.19;73.72
72202;SHT30;60105;54.956;73.412;2022-12-24T12:31:02;0.25;73.23
72202;SHT30;60105;54.956;73.412;2022-12-24T12:36:52;0.26;73.04
72202;SHT30;60105;54.956;73.412;2022-12-24T12:39:19;0.19;73.57
72202;SHT30;60105;54.956;73.412;2022-12-24T12:55:32;0.16;73.31
72202;SHT30;60105;54.956;73.412;2022-12-24T13:01:12;0.27;73.26
72202;SHT30;60105;54.956;73.412;2022-12-24T13:09:27;0.23;73.71
72202;SHT30;60105;54.956;73.412;2022-12-24T13:12:18;0.32;73.03
72202;SHT30;60105;54.956;73.412;2022-12-24T13:18:25;0.49;72.06
72202;SHT30;60105;54.956;73.412;2022-12-24T13:20:54;0.50;72.18
72202;SHT30;60105;54.956;73.412;2022-12-24T13:23:23;0.47;72.08
72202;SHT30;60105;54.956;73.412;2022-12-24T13:26:10;0.43;73.30
72202;SHT30;60105;54.956;73.412;2022-12-24T13:28:46;0.40;72.71
72202;SHT30;60105;54.956;73.412;2022-12-24T13:33:45;0.33;72.43
72202;SHT30;60105;54.956;73.412;2022-12-24T13:36:14;0.32;73.44
72202;SHT30;60105;54.956;73.412;2022-12-24T13:38:55;0.33;73.13
72202;SHT30;60105;54.956;73.412;2022-12-24T13:41:48;0.30;72.87
72202;SHT30;60105;54.956;73.412;2022-12-24T13:44:17;0.29;73.16
72202;SHT30;60105;54.956;73.412;2022-12-24T13:49:42;0.39;72.64
72202;SHT30;60105;54.956;73.412;2022-12-24T13:58:04;0.30;73.28
72202;SHT30;60105;54.956;73.412;2022-12-24T14:00:42;0.27;73.49
72202;SHT30;60105;54.956;73.412;2022-12-24T14:08:31;0.23;73.24
72202;SHT30;60105;54.956;73.412;2022-12-24T14:11:19;0.23;72.79
72202;SHT30;60105;54.956;73.412;2022-12-24T14:16:29;0.05;74.10
72202;SHT30;60105;54.956;73.412;2022-12-24T14:19:25;0.15;73.37
72202;SHT30;60105;54.956;73.412;2022-12-24T14:22:01;0.19;73.61
72202;SHT30;60105;54.956;73.412;2022-12-24T14:24:38;0.22;73.35
72202;SHT30;60105;54.956;73.412;2022-12-24T14:27:16;0.25;72.97
72202;SHT30;60105;54.956;73.412;2022-12-24T14:29:49;0.30;72.91
72202;SHT30;60105;54.956;73.412;2022-12-24T14:32:33;0.15;72.99
72202;SHT30;60105;54.956;73.412;2022-12-24T14:38:10;-0.12;74.41
72202;SHT30;60105;54.956;73.412;2022-12-24T14:40:51;-0.15;74.75
72202;SHT30;60105;54.956;73.412;2022-12-24T14:46:41;-0.32;75.14
72202;SHT30;60105;54.956;73.412;2022-12-24T14:54:43;-0.45;75.74
72202;SHT30;60105;54.956;73.412;2022-12-24T14:57:28;-0.45;76.06
72202;SHT30;60105;54.956;73.412;2022-12-24T14:59:59;-0.45;75.89
72202;SHT30;60105;54.956;73.412;2022-12-24T15:02:49;-0.36;75.53
72202;SHT30;60105;54.956;73.412;2022-12-24T15:05:27;-0.30;76.42
72202;SHT30;60105;54.956;73.412;2022-12-24T15:08:00;-0.32;75.43
72202;SHT30;60105;54.956;73.412;2022-12-24T15:10:37;-0.23;75.10
72202;SHT30;60105;54.956;73.412;2022-12-24T15:15:52;-0.23;74.99
72202;SHT30;60105;54.956;73.412;2022-12-24T15:18:26;-0.15;75.40
72202;SHT30;60105;54.956;73.412;2022-12-24T15:20:55;-0.14;74.63
72202;SHT30;60105;54.956;73.412;2022-12-24T15:23:29;-0.11;74.99
72202;SHT30;60105;54.956;73.412;2022-12-24T15:26:22;-0.11;74.26
72202;SHT30;60105;54.956;73.412;2022-12-24T15:28:49;-0.02;74.01
72202;SHT30;60105;54.956;73.412;2022-12-24T15:31:33;-0.05;75.18
72202;SHT30;60105;54.956;73.412;2022-12-24T15:37:06;-0.33;74.90
72202;SHT30;60105;54.956;73.412;2022-12-24T15:42:25;-0.40;75.02
72202;SHT30;60105;54.956;73.412;2022-12-24T15:48:34;-0.49;75.76
72202;SHT30;60105;54.956;73.412;2022-12-24T15:51:03;-0.48;75.76
72202;SHT30;60105;54.956;73.412;2022-12-24T15:53:36;-0.53;75.71
72202;SHT30;60105;54.956;73.412;2022-12-24T15:59:33;-0.54;75.73
72202;SHT30;60105;54.956;73.412;2022-12-24T16:02:47;-0.52;75.62
72202;SHT30;60105;54.956;73.412;2022-12-24T16:05:36;-0.70;76.17
72202;SHT30;60105;54.956;73.412;2022-12-24T16:08:17;-0.70;76.12
72202;SHT30;60105;54.956;73.412;2022-12-24T16:13:59;-0.91;76.87
72202;SHT30;60105;54.956;73.412;2022-12-24T16:16:37;-0.91;76.87
72202;SHT30;60105;54.956;73.412;2022-12-24T16:19:05;-0.90;76.95
72202;SHT30;60105;54.956;73.412;2022-12-24T16:21:41;-0.87;76.64
72202;SHT30;60105;54.956;73.412;2022-12-24T16:24:17;-0.91;76.54
72202;SHT30;60105;54.956;73.412;2022-12-24T16:26:46;-0.88;76.62
72202;SHT30;60105;54.956;73.412;2022-12-24T16:29:13;-0.97;76.88
72202;SHT30;60105;54.956;73.412;2022-12-24T16:31:50;-0.98;76.68
72202;SHT30;60105;54.956;73.412;2022-12-24T16:34:17;-1.14;77.03
72202;SHT30;60105;54.956;73.412;2022-12-24T16:36:44;-1.22;77.72
72202;SHT30;60105;54.956;73.412;2022-12-24T16:39:22;-1.22;77.40
72202;SHT30;60105;54.956;73.412;2022-12-24T16:41:53;-1.30;77.81
72202;SHT30;60105;54.956;73.412;2022-12-24T16:44:41;-1.28;77.78
72202;SHT30;60105;54.956;73.412;2022-12-24T16:47:28;-1.30;77.72
72202;SHT30;60105;54.956;73.412;2022-12-24T16:49:57;-1.28;77.92
72202;SHT30;60105;54.956;73.412;2022-12-24T16:52:26;-1.25;77.66
72202;SHT30;60105;54.956;73.412;2022-12-24T16:55:16;-1.25;77.71
72202;SHT30;60105;54.956;73.412;2022-12-24T16:57:43;-1.18;77.38
72202;SHT30;60105;54.956;73.412;2022-12-24T17:00:18;-1.27;77.61
72202;SHT30;60105;54.956;73.412;2022-12-24T17:02:48;-1.18;77.53
72202;SHT30;60105;54.956;73.412;2022-12-24T17:05:37;-1.14;76.96
72202;SHT30;60105;54.956;73.412;2022-12-24T17:08:05;-1.18;77.25
72202;SHT30;60105;54.956;73.412;2022-12-24T17:10:49;-1.19;77.30
72202;SHT30;60105;54.956;73.412;2022-12-24T17:13:35;-1.25;77.37
72202;SHT30;60105;54.956;73.412;2022-12-24T17:16:01;-1.27;77.42
72202;SHT30;60105;54.956;73.412;2022-12-24T17:18:47;-1.24;77.45
72202;SHT30;60105;54.956;73.412;2022-12-24T17:21:14;-1.24;77.58
72202;SHT30;60105;54.956;73.412;2022-12-24T17:23:40;-1.25;77.42
72202;SHT30;60105;54.956;73.412;2022-12-24T17:26:25;-1.28;77.72
72202;SHT30;60105;54.956;73.412;2022-12-24T17:28:55;-1.36;77.81
72202;SHT30;60105;54.956;73.412;2022-12-24T17:31:26;-1.31;77.87
72202;SHT30;60105;54.956;73.412;2022-12-24T17:34:11;-1.28;77.80
72202;SHT30;60105;54.956;73.412;2022-12-24T17:36:47;-1.30;77.78
72202;SHT30;60105;54.956;73.412;2022-12-24T17:39:23;-1.30;77.49
72202;SHT30;60105;54.956;73.412;2022-12-24T17:41:50;-1.24;77.50
72202;SHT30;60105;54.956;73.412;2022-12-24T17:44:18;-1.22;77.57
72202;SHT30;60105;54.956;73.412;2022-12-24T17:46:49;-1.19;77.42
72202;SHT30;60105;54.956;73.412;2022-12-24T17:49:26;-1.28;77.37
72202;SHT30;60105;54.956;73.412;2022-12-24T17:52:11;-1.27;77.59
72202;SHT30;60105;54.956;73.412;2022-12-24T17:54:59;-1.30;77.72
72202;SHT30;60105;54.956;73.412;2022-12-24T17:57:25;-1.24;77.72
72202;SHT30;60105;54.956;73.412;2022-12-24T17:59:52;-1.25;77.77
72202;SHT30;60105;54.956;73.412;2022-12-24T18:02:23;-1.36;77.79
72202;SHT30;60105;54.956;73.412;2022-12-24T18:04:49;-1.30;77.96
72202;SHT30;60105;54.956;73.412;2022-12-24T18:07:16;-1.31;77.81
72202;SHT30;60105;54.956;73.412;2022-12-24T18:09:43;-1.30;77.73
72202;SHT30;60105;54.956;73.412;2022-12-24T18:14:56;-1.30;77.92
72202;SHT30;60105;54.956;73.412;2022-12-24T18:17:22;-1.34;78.11
72202;SHT30;60105;54.956;73.412;2022-12-24T18:20:07;-1.38;78.11
72202;SHT30;60105;54.956;73.412;2022-12-24T18:22:34;-1.35;78.18
72202;SHT30;60105;54.956;73.412;2022-12-24T18:25:00;-1.34;77.91
72202;SHT30;60105;54.956;73.412;2022-12-24T18:27:26;-1.36;78.02
72202;SHT30;60105;54.956;73.412;2022-12-24T18:29:52;-1.46;78.30
72202;SHT30;60105;54.956;73.412;2022-12-24T18:32:37;-1.45;78.34
72202;SHT30;60105;54.956;73.412;2022-12-24T18:35:04;-1.46;78.41
72202;SHT30;60105;54.956;73.412;2022-12-24T18:37:36;-1.48;78.27
72202;SHT30;60105;54.956;73.412;2022-12-24T18:40:03;-1.49;78.60
72202;SHT30;60105;54.956;73.412;2022-12-24T18:42:29;-1.48;78.42
72202;SHT30;60105;54.956;73.412;2022-12-24T18:45:01;-1.45;78.25
72202;SHT30;60105;54.956;73.412;2022-12-24T18:47:30;-1.52;78.15
72202;SHT30;60105;54.956;73.412;2022-12-24T18:50:01;-1.46;78.15
72202;SHT30;60105;54.956;73.412;2022-12-24T18:52:33;-1.35;77.73
72202;SHT30;60105;54.956;73.412;2022-12-24T18:55:04;-1.46;78.23
72202;SHT30;60105;54.956;73.412;2022-12-24T19:00:26;-1.42;78.31
72202;SHT30;60105;54.956;73.412;2022-12-24T19:03:15;-1.42;78.05
72202;SHT30;60105;54.956;73.412;2022-12-24T19:05:41;-1.35;78.21
72202;SHT30;60105;54.956;73.412;2022-12-24T19:08:07;-1.41;77.94
72202;SHT30;60105;54.956;73.412;2022-12-24T19:10:36;-1.45;78.22
72202;SHT30;60105;54.956;73.412;2022-12-24T19:13:13;-1.45;78.29
72202;SHT30;60105;54.956;73.412;2022-12-24T19:15:58;-1.51;78.44
72202;SHT30;60105;54.956;73.412;2022-12-24T19:18:43;-1.45;78.38
72202;SHT30;60105;54.956;73.412;2022-12-24T19:21:28;-1.45;78.19
72202;SHT30;60105;54.956;73.412;2022-12-24T19:24:13;-1.42;78.50
72202;SHT30;60105;54.956;73.412;2022-12-24T19:26:58;-1.38;78.28